Terminal Aerodrome Forecast
Issued by NWS

Home | Current Version | Previous Version | Text Only | Print | Product List | Glossary On
Versions: 1 2 3 4 5 6 7 8 9 10 11 12 13
000
FTUS44 KEPZ 292320
TAFLRU
TAF
KLRU 292320Z 3000/3024 34008KT P6SM SCT070 BKN100
     FM300400 21006KT P6SM SKC
     FM301000 27007KT P6SM SKC
     FM302000 23015G25KT P6SM FEW250=

USA.gov is the U.S. government's official web portal to all federal, state and local government web resources and services.